Jogyakarta, Indonesia

4:12 AM WIB on October 26, 2014 (GMT +0700)
ACHMAD YANI | Change Station
CLOSE
Current Station
Airport
Location: ACHMAD YANI,
Elevation: 10 ft
Nearby Weather Stations

Elev 10 ft 6.97 °S, 110.38 °E | Updated 12 minutes ago

Haze
Haze
79 °F
Feels Like 79 °F
N
2
Wind Variable Wind from East

Today
High -- | Low -- °F
--% Chance of Precip.
Yesterday
High -- | Low -- °F
Precip. -- in
5:12 AM 5:32 PM
Waxing Crescent, 4% visible
Pressure 29.86 in
Visibility 2.5 miles
Clouds Scattered Clouds 1900 ft
Dew Point 75 °F
Humidity 89%
Rainfall 0.00 in
Snow Depth Not available.
UV 0 out of 12
Pollen Not available.
Air Quality Not available.
Flu Activity Not available.
METAR WARS 252100Z 10002KT 4000 HZ SCT019 26/24 Q1011

More Conditions Fewer Conditions

Pressure 29.86 in
Visibility 2.5 miles
Clouds Scattered Clouds 1900 ft
Dew Point 75 °F
Humidity 89%
Rainfall 0.00 in
Snow Depth Not available.
UV 0 out of 12
Pollen Not available.
Air Quality Not available.
Flu Activity Not available.
METAR WARS 252100Z 10002KT 4000 HZ SCT019 26/24 Q1011

More Conditions Fewer Conditions

10-Day Weather Forecast

Almanac

Astronomy

Oct. 26, 2014 Rise Set
Actual Time 5:12 AM WIB 5:32 PM WIB
Civil Twilight 4:50 AM WIB 5:54 PM WIB
Nautical Twilight 4:25 AM WIB 6:19 PM WIB
Astronomical Twilight 4:00 AM WIB 6:44 PM WIB
Moon 6:55 AM WIB (10/26) 7:40 PM WIB (10/26)
Length of Visible Light 13h 03m
Length of Day
12h 20m
Tomorrow will be 0m 25s longer.
Waxing Crescent, 4% of the Moon is Illuminated
Oct 25
Waxing Crescent
Oct 30
First Quarter
Nov 6
Full
Nov 14
Last Quarter
Nov 22
New

Yesterday's Extremes

Country Highs Country Lows

Community

WunderPhotos

Upload Photos

1,764,997 photos uploaded!

Nearby

Snow Depth

Not available.

Earthquake Activity

City Distance Mag. Time & Date
No recent earthquake activity has been reported nearby.
Minimum magnitude displayed is 2.5.

Coastal Water Temperatures

Place Temperature
No Stations Reporting

Nearby Weather Stations